createdAt,value
2018-03-23T00:00:37.493Z,98716.73
2018-03-23T00:03:05.151Z,98721.94
2018-03-23T00:05:32.743Z,98717.59
2018-03-23T00:08:00.326Z,98726.22
2018-03-23T00:10:27.946Z,98741.30
2018-03-23T00:12:55.531Z,98725.70
2018-03-23T00:15:23.155Z,98723.61
2018-03-23T00:17:50.789Z,98720.56
2018-03-23T00:20:18.379Z,98736.98
2018-03-23T00:22:45.983Z,98773.28
2018-03-23T00:25:13.655Z,98760.73
2018-03-23T00:27:42.087Z,98778.45
2018-03-23T00:30:09.675Z,98782.71
2018-03-23T00:32:38.215Z,98798.66
2018-03-23T00:35:05.803Z,98795.23
2018-03-23T00:37:33.390Z,98789.16
2018-03-23T00:40:01.059Z,98796.91
2018-03-23T00:42:28.650Z,98792.14
2018-03-23T00:44:56.263Z,98793.88
2018-03-23T00:47:23.898Z,98788.75
2018-03-23T00:49:51.510Z,98770.56
2018-03-23T00:52:19.138Z,98760.67
2018-03-23T00:54:46.739Z,98758.03
2018-03-23T00:57:14.355Z,98754.07
2018-03-23T00:59:41.942Z,98747.61
2018-03-23T01:02:09.557Z,98739.08
2018-03-23T01:04:37.215Z,98749.94
2018-03-23T01:07:04.803Z,98758.08
2018-03-23T01:09:32.390Z,98769.69
2018-03-23T01:11:59.970Z,98786.98
2018-03-23T01:14:27.565Z,98783.45
2018-03-23T01:16:55.167Z,98784.35
2018-03-23T01:19:22.783Z,98770.17
2018-03-23T01:21:50.370Z,98766.73
2018-03-23T01:24:17.974Z,98755.49
2018-03-23T01:26:45.619Z,98756.80
2018-03-23T01:29:13.210Z,98764.19
2018-03-23T01:31:40.831Z,98784.86
2018-03-23T01:34:08.462Z,98767.59
2018-03-23T01:36:36.120Z,98737.36
2018-03-23T01:39:03.718Z,98722.34
2018-03-23T01:41:31.455Z,98703.31
2018-03-23T01:43:59.035Z,98706.73
2018-03-23T01:46:26.630Z,98713.62
2018-03-23T01:48:54.254Z,98701.17
2018-03-23T01:51:21.831Z,98704.25
2018-03-23T01:53:49.418Z,98675.77
2018-03-23T01:56:17.003Z,98661.05
2018-03-23T01:58:44.598Z,98668.34
2018-03-23T02:01:12.190Z,98675.67
2018-03-23T02:03:39.788Z,98679.16
2018-03-23T02:06:07.451Z,98672.27
2018-03-23T02:08:35.028Z,98672.23
2018-03-23T02:11:02.603Z,98658.30
2018-03-23T02:13:30.183Z,98665.17
2018-03-23T02:15:57.794Z,98664.23
2018-03-23T02:18:25.375Z,98662.52
2018-03-23T02:20:52.983Z,98655.10
2018-03-23T02:23:20.654Z,98649.57
2018-03-23T02:25:48.230Z,98650.91
2018-03-23T02:28:15.828Z,98640.87
2018-03-23T02:30:43.515Z,98636.69
2018-03-23T02:33:11.103Z,98645.70
2018-03-23T02:35:39.010Z,98639.28
2018-03-23T02:38:06.603Z,98632.83
2018-03-23T02:40:34.194Z,98636.78
2018-03-23T02:43:01.796Z,98633.27
2018-03-23T02:45:29.416Z,98629.48
2018-03-23T02:47:57.010Z,98622.89
2018-03-23T02:50:24.598Z,98621.27
2018-03-23T02:52:52.223Z,98611.38
2018-03-23T02:55:19.847Z,98604.95
2018-03-23T02:57:47.455Z,98594.56
2018-03-23T03:00:15.102Z,98585.48
2018-03-23T03:02:42.692Z,98569.53
2018-03-23T03:05:10.295Z,98549.27
2018-03-23T03:07:37.879Z,98535.81
2018-03-23T03:10:05.491Z,98538.68
2018-03-23T03:12:33.071Z,98544.29
2018-03-23T03:15:00.698Z,98535.91
2018-03-23T03:17:28.323Z,98536.08
2018-03-23T03:19:55.946Z,98541.62
2018-03-23T03:22:23.550Z,98534.03
2018-03-23T03:24:51.186Z,98540.63
2018-03-23T03:27:18.773Z,98529.67
2018-03-23T03:29:46.363Z,98528.83
2018-03-23T03:32:14.039Z,98526.69
2018-03-23T03:34:41.679Z,98529.77
2018-03-23T03:37:09.298Z,98519.38
2018-03-23T03:39:36.935Z,98522.27
2018-03-23T03:42:04.551Z,98512.43
2018-03-23T03:44:32.155Z,98496.62
2018-03-23T03:46:59.755Z,98480.73
2018-03-23T03:49:28.224Z,98481.20
2018-03-23T03:51:55.822Z,98492.78
2018-03-23T03:54:23.399Z,98492.30
2018-03-23T03:56:51.003Z,98481.50
2018-03-23T03:59:18.590Z,98478.09
2018-03-23T04:01:46.183Z,98469.12
2018-03-23T04:04:13.767Z,98473.84
2018-03-23T04:06:41.391Z,98473.34
2018-03-23T04:09:08.974Z,98473.62
2018-03-23T04:11:36.563Z,98474.56
2018-03-23T04:14:04.210Z,98479.00
2018-03-23T04:16:31.826Z,98475.18
2018-03-23T04:18:59.414Z,98460.87
2018-03-23T04:21:27.043Z,98459.98
2018-03-23T04:23:54.644Z,98447.36
2018-03-23T04:26:22.275Z,98446.92
2018-03-23T04:28:49.879Z,98455.64
2018-03-23T04:31:17.472Z,98452.14
2018-03-23T04:33:45.106Z,98451.55
2018-03-23T04:36:12.687Z,98449.23
2018-03-23T04:38:40.279Z,98450.70
2018-03-23T04:41:07.870Z,98457.60
2018-03-23T04:43:35.474Z,98449.45
2018-03-23T04:46:03.071Z,98445.53
2018-03-23T04:48:30.717Z,98448.16
2018-03-23T04:50:58.420Z,98444.63
2018-03-23T04:53:26.010Z,98437.87
2018-03-23T04:55:53.619Z,98435.38
2018-03-23T04:58:21.249Z,98425.34
2018-03-23T05:00:48.866Z,98418.42
2018-03-23T05:03:16.463Z,98414.16
2018-03-23T05:05:44.060Z,98417.54
2018-03-23T05:08:11.646Z,98416.13
2018-03-23T05:10:39.266Z,98419.66
2018-03-23T05:13:06.863Z,98410.67
2018-03-23T05:15:34.455Z,98398.94
2018-03-23T05:18:02.054Z,98396.92
2018-03-23T05:20:29.647Z,98393.06
2018-03-23T05:22:57.239Z,98396.43
2018-03-23T05:25:24.882Z,98391.02
2018-03-23T05:27:52.507Z,98395.36
2018-03-23T05:30:20.131Z,98386.02
2018-03-23T05:32:47.763Z,98380.72
2018-03-23T05:35:15.354Z,98381.16
2018-03-23T05:37:42.950Z,98376.16
2018-03-23T05:40:10.574Z,98370.91
2018-03-23T05:42:38.179Z,98367.92
2018-03-23T05:45:05.767Z,98362.59
2018-03-23T05:47:33.362Z,98363.95
2018-03-23T05:50:01.027Z,98371.31
2018-03-23T05:52:28.638Z,98371.27
2018-03-23T05:54:56.235Z,98370.07
2018-03-23T05:57:23.846Z,98370.77
2018-03-23T05:59:51.525Z,98377.95
2018-03-23T06:02:19.338Z,98381.12
2018-03-23T06:04:47.170Z,98391.42
2018-03-23T06:07:14.767Z,98382.08
2018-03-23T06:09:42.459Z,98381.47
2018-03-23T06:12:10.117Z,98378.58
2018-03-23T06:14:37.747Z,98378.81
2018-03-23T06:17:05.429Z,98379.63
2018-03-23T06:19:33.096Z,98375.95
2018-03-23T06:22:00.695Z,98379.34
2018-03-23T06:24:28.298Z,98374.70
2018-03-23T06:26:55.912Z,98373.39
2018-03-23T06:29:23.514Z,98373.05
2018-03-23T06:31:51.167Z,98369.52
2018-03-23T06:34:18.767Z,98371.97
2018-03-23T06:36:46.630Z,98371.13
2018-03-23T06:39:14.270Z,98372.30
2018-03-23T06:41:41.891Z,98369.59
2018-03-23T06:44:09.491Z,98370.02
2018-03-23T06:46:37.137Z,98368.30
2018-03-23T06:49:04.791Z,98352.22
2018-03-23T06:51:32.411Z,98359.39
2018-03-23T06:54:00.063Z,98355.58
2018-03-23T06:56:27.819Z,98354.33
2018-03-23T06:58:55.436Z,98360.92
2018-03-23T07:01:23.175Z,98353.77
2018-03-23T07:03:50.867Z,98358.80
2018-03-23T07:06:18.587Z,98363.33
2018-03-23T07:08:46.242Z,98359.47
2018-03-23T07:11:13.892Z,98362.62
2018-03-23T07:13:41.520Z,98371.48
2018-03-23T07:16:09.135Z,98371.94
2018-03-23T07:18:36.842Z,98367.08
2018-03-23T07:21:04.474Z,98358.66
2018-03-23T07:23:32.100Z,98353.74
2018-03-23T07:25:59.728Z,98340.36
2018-03-23T07:28:27.347Z,98339.34
2018-03-23T07:30:55.043Z,98330.57
2018-03-23T07:33:22.639Z,98325.88
2018-03-23T07:35:50.254Z,98332.30
2018-03-23T07:38:17.854Z,98334.48
2018-03-23T07:40:45.468Z,98331.87
2018-03-23T07:43:13.111Z,98333.05
2018-03-23T07:45:41.282Z,98333.66
2018-03-23T07:48:08.871Z,98325.22
2018-03-23T07:50:36.486Z,98319.00
2018-03-23T07:53:04.064Z,98326.04
2018-03-23T07:55:31.644Z,98318.03
2018-03-23T07:57:59.223Z,98311.38
2018-03-23T08:00:26.814Z,98307.00
2018-03-23T08:02:54.509Z,98302.46
2018-03-23T08:05:22.197Z,98308.12
2018-03-23T08:07:49.827Z,98316.73
2018-03-23T08:10:17.407Z,98312.95
2018-03-23T08:12:45.054Z,98317.77
2018-03-23T08:15:12.766Z,98315.46
2018-03-23T08:17:40.399Z,98309.43
2018-03-23T08:20:08.027Z,98306.72
2018-03-23T08:22:35.629Z,98304.48
2018-03-23T08:25:03.251Z,98299.55
2018-03-23T08:27:30.879Z,98299.83
2018-03-23T08:29:58.461Z,98298.47
2018-03-23T08:32:26.045Z,98307.03
2018-03-23T08:34:53.627Z,98296.06
2018-03-23T08:37:21.291Z,98286.33
2018-03-23T08:39:48.868Z,98287.75
2018-03-23T08:42:16.462Z,98282.62
2018-03-23T08:44:44.074Z,98271.89
2018-03-23T08:47:11.654Z,98279.88
2018-03-23T08:49:39.378Z,98272.51
2018-03-23T08:52:06.951Z,98270.74
2018-03-23T08:54:34.535Z,98263.97
2018-03-23T08:57:02.147Z,98244.27
2018-03-23T08:59:29.769Z,98262.92
2018-03-23T09:01:57.398Z,98262.64
2018-03-23T09:04:25.022Z,98265.03
2018-03-23T09:06:52.644Z,98256.56
2018-03-23T09:09:20.234Z,98263.16
2018-03-23T09:11:47.862Z,98263.80
2018-03-23T09:14:15.447Z,98248.47
2018-03-23T09:16:43.097Z,98258.84
2018-03-23T09:19:10.684Z,98259.56
2018-03-23T09:21:38.286Z,98241.15
2018-03-23T09:24:05.909Z,98252.62
2018-03-23T09:26:33.527Z,98260.16
2018-03-23T09:29:01.107Z,98257.30
2018-03-23T09:31:28.728Z,98242.03
2018-03-23T09:33:56.322Z,98246.97
2018-03-23T09:36:23.900Z,98243.70
2018-03-23T09:38:51.493Z,98251.77
2018-03-23T09:41:19.099Z,98247.23
2018-03-23T09:43:46.695Z,98231.52
2018-03-23T09:46:14.284Z,98230.85
2018-03-23T09:48:41.969Z,98229.30
2018-03-23T09:51:09.530Z,98223.22
2018-03-23T09:53:37.111Z,98217.53
2018-03-23T09:56:04.735Z,98225.67
2018-03-23T09:58:32.311Z,98224.39
2018-03-23T10:00:59.891Z,98208.43
2018-03-23T10:03:27.483Z,98201.63
2018-03-23T10:05:55.086Z,98209.16
2018-03-23T10:08:22.721Z,98202.79
2018-03-23T10:10:50.314Z,98213.27
2018-03-23T10:13:17.920Z,98212.73
2018-03-23T10:15:45.554Z,98199.11
2018-03-23T10:18:13.146Z,98199.97
2018-03-23T10:20:40.779Z,98215.30
2018-03-23T10:23:08.378Z,98219.36
2018-03-23T10:25:35.978Z,98208.53
2018-03-23T10:28:03.559Z,98201.84
2018-03-23T10:30:31.181Z,98204.65
2018-03-23T10:32:58.771Z,98209.80
2018-03-23T10:35:26.353Z,98204.49
2018-03-23T10:37:54.010Z,98186.53
2018-03-23T10:40:21.608Z,98183.44
2018-03-23T10:42:49.247Z,98184.88
2018-03-23T10:45:16.895Z,98186.56
2018-03-23T10:47:44.491Z,98171.16
2018-03-23T10:50:12.087Z,98171.69
2018-03-23T10:52:39.762Z,98167.76
2018-03-23T10:55:07.392Z,98168.93
2018-03-23T10:57:34.981Z,98165.45
2018-03-23T11:00:02.623Z,98181.61
2018-03-23T11:02:44.851Z,98176.86
2018-03-23T11:05:12.467Z,98173.64
2018-03-23T11:07:40.055Z,98178.84
2018-03-23T11:10:07.638Z,98177.99
2018-03-23T11:12:35.256Z,98179.34
2018-03-23T11:15:02.836Z,98165.91
2018-03-23T11:17:30.451Z,98160.30
2018-03-23T11:19:58.117Z,98156.23
2018-03-23T11:22:25.704Z,98156.86
2018-03-23T11:24:53.287Z,98160.25
2018-03-23T11:27:20.915Z,98163.27
2018-03-23T11:29:48.496Z,98165.33
2018-03-23T11:32:16.158Z,98157.80
2018-03-23T11:34:43.739Z,98169.44
2018-03-23T11:37:14.491Z,98166.46
2018-03-23T11:39:42.171Z,98158.23
2018-03-23T11:42:09.757Z,98147.34
2018-03-23T11:44:37.335Z,98141.14
2018-03-23T11:47:04.947Z,98138.58
2018-03-23T11:49:32.546Z,98137.80
2018-03-23T11:52:00.131Z,98142.85
2018-03-23T11:54:27.734Z,98146.67
2018-03-23T11:56:55.311Z,98135.55
2018-03-23T11:59:22.890Z,98133.20
2018-03-23T12:01:50.491Z,98140.41
2018-03-23T12:04:18.229Z,98142.64
2018-03-23T12:06:45.811Z,98139.26
2018-03-23T12:09:13.429Z,98132.69
2018-03-23T12:11:41.027Z,98137.17
2018-03-23T12:14:08.607Z,98136.23
2018-03-23T12:16:36.257Z,98139.47
2018-03-23T12:19:03.850Z,98132.45
2018-03-23T12:21:31.440Z,98136.86
2018-03-23T12:23:59.086Z,98134.42
2018-03-23T12:26:26.702Z,98132.80
2018-03-23T12:28:54.343Z,98134.91
2018-03-23T12:31:22.011Z,98135.51
2018-03-23T12:33:49.656Z,98137.80
2018-03-23T12:36:17.247Z,98128.35
2018-03-23T12:38:44.935Z,98126.00
2018-03-23T12:41:12.658Z,98131.11
2018-03-23T12:43:40.258Z,98132.38
2018-03-23T12:46:07.944Z,98135.89
2018-03-23T12:48:35.580Z,98138.97
2018-03-23T12:51:03.256Z,98139.43
2018-03-23T12:53:30.908Z,98134.64
2018-03-23T12:55:58.484Z,98136.38
2018-03-23T12:58:26.073Z,98127.66
2018-03-23T13:00:53.655Z,98124.57
2018-03-23T13:03:21.293Z,98120.67
2018-03-23T13:05:48.943Z,98118.55
2018-03-23T13:08:16.531Z,98113.75
2018-03-23T13:10:44.127Z,98112.01
2018-03-23T13:13:11.755Z,98109.06
2018-03-23T13:15:40.234Z,98106.35
2018-03-23T13:18:07.853Z,98110.42
2018-03-23T13:20:35.463Z,98111.19
2018-03-23T13:23:03.150Z,98109.41
2018-03-23T13:25:30.776Z,98108.02
2018-03-23T13:27:58.419Z,98116.20
2018-03-23T13:30:26.008Z,98120.23
2018-03-23T13:32:53.707Z,98117.61
2018-03-23T13:35:21.976Z,98120.55
2018-03-23T13:37:49.568Z,98128.10
2018-03-23T13:40:17.199Z,98125.23
2018-03-23T13:42:44.787Z,98115.28
2018-03-23T13:45:12.503Z,98120.03
2018-03-23T13:47:40.088Z,98120.79
2018-03-23T13:50:07.766Z,98113.56
2018-03-23T13:52:35.340Z,98110.96
2018-03-23T13:55:02.956Z,98108.48
2018-03-23T13:57:30.571Z,98100.87
2018-03-23T13:59:58.958Z,98106.67
2018-03-23T14:02:26.540Z,98101.82
2018-03-23T14:04:54.128Z,98095.87
2018-03-23T14:07:21.804Z,98103.56
2018-03-23T14:09:49.378Z,98103.58
2018-03-23T14:12:16.975Z,98100.59
2018-03-23T14:14:44.734Z,98105.89
2018-03-23T14:17:12.367Z,98108.79
2018-03-23T14:19:40.089Z,98108.83
2018-03-23T14:22:07.677Z,98115.81
2018-03-23T14:24:35.279Z,98114.52
2018-03-23T14:27:03.013Z,98113.97
2018-03-23T14:29:30.654Z,98113.86
2018-03-23T14:31:58.328Z,98116.29
2018-03-23T14:34:26.070Z,98112.13
2018-03-23T14:36:53.704Z,98113.65
2018-03-23T14:39:21.327Z,98112.33
2018-03-23T14:41:49.041Z,98112.15
2018-03-23T14:44:16.740Z,98112.44
2018-03-23T14:46:44.388Z,98112.88
2018-03-23T14:49:12.080Z,98118.21
2018-03-23T14:51:39.708Z,98113.72
2018-03-23T14:54:07.359Z,98109.19
2018-03-23T14:56:35.005Z,98116.20
2018-03-23T14:59:08.231Z,98119.86
2018-03-23T15:01:36.001Z,98114.38
2018-03-23T15:04:03.710Z,98115.81
2018-03-23T15:06:31.352Z,98111.03
2018-03-23T15:08:59.024Z,98114.53
2018-03-23T15:11:26.736Z,98115.81
2018-03-23T15:16:50.220Z,98117.55
2018-03-23T15:19:17.887Z,98118.50
2018-03-23T15:21:45.689Z,98123.58
2018-03-23T15:24:13.500Z,98125.54
2018-03-23T15:26:41.731Z,98122.86
2018-03-23T15:29:09.333Z,98136.30
2018-03-23T15:31:37.001Z,98130.92
2018-03-23T15:34:04.711Z,98132.81
2018-03-23T15:36:32.505Z,98135.00
2018-03-23T15:39:00.143Z,98132.69
2018-03-23T15:41:27.799Z,98133.14
2018-03-23T15:43:56.231Z,98136.31
2018-03-23T15:46:23.831Z,98138.09
2018-03-23T15:48:51.526Z,98149.31
2018-03-23T15:51:19.195Z,98152.16
2018-03-23T15:53:46.916Z,98153.58
2018-03-23T16:09:09.745Z,98147.48
2018-03-23T16:11:37.449Z,98153.52
2018-03-23T16:14:05.160Z,98144.87
2018-03-23T16:16:33.024Z,98142.22
2018-03-23T16:19:00.741Z,98147.06
2018-03-23T16:21:28.460Z,98148.19
2018-03-23T16:23:56.173Z,98149.49
2018-03-23T16:26:23.934Z,98147.86
2018-03-23T16:28:51.596Z,98151.20
2018-03-23T16:31:19.301Z,98159.59
2018-03-23T16:33:47.061Z,98164.34
2018-03-23T16:36:14.745Z,98164.80
2018-03-23T16:38:42.495Z,98154.70
2018-03-23T16:41:10.181Z,98155.06
2018-03-23T16:43:37.897Z,98150.41
2018-03-23T16:46:05.516Z,98153.29
2018-03-23T16:48:33.162Z,98163.94
2018-03-23T16:51:00.805Z,98167.56
2018-03-23T16:53:29.380Z,98171.95
2018-03-23T16:55:57.023Z,98171.50
2018-03-23T16:58:24.668Z,98175.40
2018-03-23T17:00:52.376Z,98178.02
2018-03-23T17:03:20.016Z,98173.52
2018-03-23T17:05:47.656Z,98171.09
2018-03-23T17:08:15.306Z,98182.84
2018-03-23T17:10:42.914Z,98176.69
2018-03-23T17:13:10.498Z,98173.70
2018-03-23T17:15:38.179Z,98171.30
2018-03-23T17:18:06.705Z,98173.94
2018-03-23T17:20:34.432Z,98179.17
2018-03-23T17:23:02.064Z,98177.80
2018-03-23T17:25:29.998Z,98176.66
2018-03-23T17:27:57.685Z,98172.36
2018-03-23T17:30:25.403Z,98177.62
2018-03-23T17:32:53.072Z,98178.73
2018-03-23T17:35:20.804Z,98180.69
2018-03-23T17:37:48.551Z,98184.46
2018-03-23T17:40:16.228Z,98189.32
2018-03-23T17:42:44.077Z,98191.13
2018-03-23T17:45:11.771Z,98196.34
2018-03-23T17:47:39.490Z,98206.12
2018-03-23T17:50:07.190Z,98204.27
2018-03-23T17:52:35.270Z,98196.95
2018-03-23T17:55:03.434Z,98191.81
2018-03-23T17:57:31.214Z,98192.31
2018-03-23T17:59:58.930Z,98200.13
2018-03-23T18:02:26.651Z,98196.95
2018-03-23T18:04:54.500Z,98202.53
2018-03-23T18:07:22.242Z,98201.94
2018-03-23T18:09:49.905Z,98205.28
2018-03-23T18:12:17.588Z,98204.34
2018-03-23T18:14:45.593Z,98202.72
2018-03-23T18:17:13.283Z,98204.30
2018-03-23T18:19:40.951Z,98208.19
2018-03-23T18:22:08.644Z,98213.65
2018-03-23T18:24:36.383Z,98211.59
2018-03-23T18:27:04.089Z,98212.22
2018-03-23T18:29:31.779Z,98213.09
2018-03-23T18:31:59.622Z,98217.31
2018-03-23T18:34:27.231Z,98211.87
2018-03-23T18:36:54.864Z,98212.55
2018-03-23T18:39:22.558Z,98216.69
2018-03-23T18:41:50.195Z,98215.97
2018-03-23T18:44:17.787Z,98217.36
2018-03-23T18:46:45.593Z,98223.17
2018-03-23T18:49:13.315Z,98223.42
2018-03-23T18:51:41.011Z,98214.03
2018-03-23T18:54:08.662Z,98216.02
2018-03-23T18:56:36.264Z,98218.95
2018-03-23T18:59:03.966Z,98206.80
2018-03-23T19:01:31.608Z,98211.73
2018-03-23T19:03:59.218Z,98207.33
2018-03-23T19:06:26.839Z,98207.39
2018-03-23T19:08:54.464Z,98208.81
2018-03-23T19:11:22.057Z,98206.11
2018-03-23T19:13:49.769Z,98212.84
2018-03-23T19:16:17.358Z,98214.22
2018-03-23T19:18:45.003Z,98215.20
2018-03-23T19:21:12.611Z,98219.30
2018-03-23T19:23:40.225Z,98228.43
2018-03-23T19:26:07.858Z,98232.70
2018-03-23T19:28:35.475Z,98232.63
2018-03-23T19:31:03.116Z,98235.97
2018-03-23T19:33:30.760Z,98237.42
2018-03-23T19:35:58.455Z,98229.69
2018-03-23T19:38:26.092Z,98229.26
2018-03-23T19:40:53.740Z,98228.44
2018-03-23T19:43:21.756Z,98230.38
2018-03-23T19:45:49.396Z,98229.84
2018-03-23T19:48:17.063Z,98232.02
2018-03-23T19:50:44.723Z,98228.44
2018-03-23T19:53:12.381Z,98232.27
2018-03-23T19:55:40.125Z,98233.53
2018-03-23T19:58:07.804Z,98234.06
2018-03-23T20:00:35.511Z,98240.60
2018-03-23T20:03:03.119Z,98249.91
2018-03-23T20:05:30.706Z,98249.17
2018-03-23T20:07:59.068Z,98250.46
2018-03-23T20:10:26.659Z,98232.84
2018-03-23T20:12:54.265Z,98234.27
2018-03-23T20:15:21.855Z,98234.00
2018-03-23T20:17:55.028Z,98223.28
2018-03-23T20:20:28.315Z,98219.98
2018-03-23T20:22:56.001Z,98221.59
2018-03-23T20:25:23.782Z,98223.88
2018-03-23T20:27:58.234Z,98221.53
2018-03-23T20:30:26.915Z,98222.14
2018-03-23T20:32:54.687Z,98220.74
2018-03-23T20:35:22.583Z,98223.80
2018-03-23T20:37:50.304Z,98222.83
2018-03-23T20:40:18.045Z,98218.37
2018-03-23T20:42:45.756Z,98222.62
2018-03-23T20:45:13.425Z,98216.47
2018-03-23T20:47:41.076Z,98221.53
2018-03-23T20:50:08.854Z,98219.95
2018-03-23T20:52:36.622Z,98224.87
2018-03-23T20:55:04.296Z,98226.18
2018-03-23T20:57:32.332Z,98228.98
2018-03-23T20:59:59.994Z,98230.64
2018-03-23T21:02:27.697Z,98223.19
2018-03-23T21:04:55.389Z,98225.06
2018-03-23T21:07:23.075Z,98222.21
2018-03-23T21:09:50.756Z,98223.32
2018-03-23T21:12:18.404Z,98217.66
2018-03-23T21:14:46.189Z,98223.78
2018-03-23T21:17:13.840Z,98224.84
2018-03-23T21:19:41.500Z,98229.52
2018-03-23T21:22:09.311Z,98229.76
2018-03-23T21:24:36.975Z,98228.86
2018-03-23T21:27:04.593Z,98227.77
2018-03-23T21:29:32.219Z,98229.78
2018-03-23T21:32:00.084Z,98219.11
2018-03-23T21:34:27.749Z,98222.72
2018-03-23T21:36:55.388Z,98226.31
2018-03-23T21:39:23.034Z,98220.17
2018-03-23T21:41:50.714Z,98222.81
2018-03-23T21:44:18.352Z,98225.44
2018-03-23T21:46:46.022Z,98225.59
2018-03-23T21:49:13.717Z,98223.03
2018-03-23T21:51:41.460Z,98222.38
2018-03-23T21:54:09.116Z,98220.36
2018-03-23T21:56:36.795Z,98223.64
2018-03-23T21:59:04.482Z,98230.77
2018-03-23T22:01:32.297Z,98238.81
2018-03-23T22:04:00.039Z,98234.72
2018-03-23T22:06:27.668Z,98240.70
2018-03-23T22:08:55.291Z,98243.94
2018-03-23T22:11:22.964Z,98240.33
2018-03-23T22:13:50.603Z,98242.44
2018-03-23T22:16:18.291Z,98243.02
2018-03-23T22:18:45.923Z,98238.45
2018-03-23T22:21:13.686Z,98241.37
2018-03-23T22:23:41.388Z,98245.16
2018-03-23T22:26:09.103Z,98239.22
2018-03-23T22:28:36.783Z,98245.97
2018-03-23T22:31:04.444Z,98235.02
2018-03-23T22:33:32.152Z,98239.36
2018-03-23T22:35:59.876Z,98233.14
2018-03-23T22:38:27.551Z,98234.69
2018-03-23T22:40:55.200Z,98238.90
2018-03-23T22:43:23.097Z,98241.73
2018-03-23T22:45:50.919Z,98241.37
2018-03-23T22:48:18.673Z,98240.52
2018-03-23T22:50:46.350Z,98242.36
2018-03-23T22:53:14.016Z,98242.16
2018-03-23T22:55:41.736Z,98243.93
2018-03-23T22:58:09.452Z,98244.58
2018-03-23T23:00:37.156Z,98239.37
2018-03-23T23:03:04.824Z,98244.22
2018-03-23T23:05:32.602Z,98246.09
2018-03-23T23:08:00.291Z,98234.24
2018-03-23T23:10:27.955Z,98236.64
2018-03-23T23:12:55.657Z,98243.05
2018-03-23T23:15:23.375Z,98239.23
2018-03-23T23:17:51.075Z,98246.88
2018-03-23T23:20:18.815Z,98246.52
2018-03-23T23:22:46.480Z,98242.27
2018-03-23T23:25:14.092Z,98255.76
2018-03-23T23:27:41.762Z,98258.71
2018-03-23T23:30:09.368Z,98259.08
2018-03-23T23:32:37.003Z,98264.25
2018-03-23T23:35:04.626Z,98268.91
2018-03-23T23:37:32.215Z,98267.96
2018-03-23T23:39:59.839Z,98260.25
2018-03-23T23:42:27.443Z,98269.31
2018-03-23T23:44:55.067Z,98268.13
2018-03-23T23:47:22.788Z,98271.50
2018-03-23T23:49:50.390Z,98259.97
2018-03-23T23:52:18.034Z,98268.03
2018-03-23T23:54:45.699Z,98265.63
2018-03-23T23:57:13.287Z,98272.27
2018-03-23T23:59:40.870Z,98268.67
